Latest Coastal Weather Observations for Hobart

IDT60701

Issued at 10:41 am EDT Sunday 21 December 2014 (issued every 10 minutes, with the page automatically refreshed every 10 minutes)

About coastal observations | Map of coastal stations | Coastal observations for TAS | Marine services | Other Formats
Station Details ID: 094029 Name: HOBART (ELLERSLIE ROAD) Lat: -42.89 Lon: 147.33 Height: 50.5 m
Data from the previous 72 hours. | See also: Recent months at Hobart
Date/Time
EDT
Temp

°C
Wind Pressure Rain
since 9am
mm
Weather Cloud Vis
km
Sea
Height
m
Swell
Dir
 
Speed
knots
Gust
knots
hPa Trend Height
m
Period
s
Dir
21/10:30am 19.2 N 12 18 1012.5 - 0.0 - - - - - - -
21/10:00am 17.8 N 11 16 1013.3 - 0.0 - - - - - - -
21/09:30am 17.0 N 10 14 1013.6 - 0.0 - - - - - - -
21/09:00am 16.3 NNW 11 15 1013.9 - 0.0 - - - - - - -
21/08:30am 15.1 NNW 7 11 1014.0 - 0.0 - - - - - - -
21/08:00am 13.8 NNW 6 8 1013.9 - 0.0 - - - - - - -
21/07:30am 13.5 NNW 6 7 1014.3 - 0.0 - - - - - - -
21/07:00am 13.4 NNW 6 9 1014.4 - 0.0 - - - - - - -
21/06:30am 12.8 CALM 0 0 1014.5 - 0.0 - - - - - - -
21/06:00am 12.4 WSW 5 7 1015.4 - 0.0 - - - - - - -
21/05:30am 13.0 CALM 0 3 1015.0 - 0.0 - - - - - - -
21/05:00am 12.9 N 1 4 1014.5 - 0.0 - - - - - - -
21/04:30am 13.3 N 4 5 1014.1 - 0.0 - - - - - - -
21/04:00am 13.3 NE 3 5 1014.2 - 0.0 - - - - - - -
21/03:30am 13.3 NE 4 5 1014.2 - 0.0 - - - - - - -
21/03:00am 13.3 NNE 3 5 1014.4 - 0.0 - - - - - - -
21/02:30am 13.2 NE 4 6 1014.8 - 0.0 - - - - - - -
21/02:00am 13.3 NNE 5 7 1015.1 - 0.0 - - - - - - -
21/01:30am 13.4 NE 4 5 1015.5 - 0.0 - - - - - - -
21/01:00am 13.4 NE 5 7 1015.8 - 0.0 - - - - - - -
21/12:30am 13.6 ESE 5 8 1016.0 - 0.0 - - - - - - -
21/12:00am 13.6 E 6 8 1016.0 - 0.0 - - - - - - -
 
Date/Time
EDT
Temp

°C
Wind Pressure Rain
since 9am
mm
Weather Cloud Vis
km
Sea
Height
m
Swell
Dir
 
Speed
knots
Gust
knots
hPa Trend Height
m
Period
s
Dir
20/11:30pm 13.7 ENE 5 8 1016.2 - 0.0 - - - - - - -
20/11:00pm 13.7 ENE 6 8 1016.1 - 0.0 - - - - - - -
20/10:30pm 13.7 SE 4 7 1016.3 - 0.0 - - - - - - -
20/10:00pm 13.7 SE 4 7 1016.2 - 0.0 - - - - - - -
20/09:30pm 13.8 SSE 7 10 1015.9 - 0.0 - - - - - - -
20/09:00pm 14.2 SE 7 11 1015.6 - 0.0 - - - - - - -
20/08:30pm 14.5 SE 11 16 1015.2 - 0.0 - - - - - - -
20/08:00pm 15.2 SE 13 18 1014.8 - 0.0 - - - - - - -
20/07:30pm 15.5 E 15 20 1014.3 - 0.0 - - - - - - -
20/07:00pm 16.2 ESE 16 21 1013.9 - 0.0 - - - - - - -
20/06:30pm 17.1 ESE 14 20 1013.4 - 0.0 - - - - - - -
20/06:20pm 16.8 ESE 15 22 1013.2 - 0.0 - - - - - - -
20/06:00pm 17.8 ENE 11 17 1012.9 - 0.0 - - - - - - -
20/05:30pm 19.0 E 9 14 1012.7 - 0.0 - - - - - - -
20/05:05pm 17.4 ENE 15 26 1012.7 - 0.0 - - - - - - -
20/05:00pm 17.9 E 11 19 1012.7 - 0.0 - - - - - - -
20/04:42pm 18.1 E 13 26 1012.5 - 0.0 - - - - - - -
20/04:30pm 21.5 SSW 14 22 1012.3 - 0.0 - - - - - - -
20/04:00pm 21.1 SW 12 19 1012.1 - 0.0 - - - - - - -
20/03:46pm 20.5 SSW 15 25 1011.9 - 0.0 - - - - - - -
20/03:30pm 20.7 SSW 15 22 1011.9 - 0.0 - - - - - - -
20/03:00pm 20.1 SSW 11 18 1012.1 - 0.0 - - - - - - -
20/02:30pm 20.5 SW 10 16 1012.2 - 0.0 - - - - - - -
20/02:00pm 20.8 SW 11 17 1012.2 - 0.0 - - - - - - -
20/01:31pm 19.8 SW 16 26 1012.1 - 0.0 - - - - - - -
20/01:30pm 19.6 SW 17 26 1012.1 - 0.0 - - - - - - -
20/01:22pm 20.6 SW 13 26 1012.1 - 0.0 - - - - - - -
20/01:00pm 21.7 WSW 12 21 1012.0 - 0.0 - - - - - - -
20/12:30pm 21.7 WSW 11 24 1011.8 - 0.0 - - - - - - -
20/12:00pm 19.3 WSW 14 26 1012.0 - 0.0 - - - - - - -
20/11:30am 20.2 SW 14 21 1011.7 - 0.0 - - - - - - -
20/11:00am 18.4 NNE 5 11 1011.9 - 0.0 - - - - - - -
20/10:30am 19.4 SW 11 17 1011.9 - 0.0 - - - - - - -
20/10:00am 18.1 SW 11 17 1011.8 - 0.0 - - - - - - -
20/09:30am 15.3 NNW 8 12 1012.0 - 0.0 - - - - - - -
20/09:00am 15.9 NNW 10 15 1011.6 - 0.0 - - - - - - -
20/08:30am 16.7 NW 10 16 1011.4 - 0.0 - - - - - - -
20/08:00am 14.6 NW 13 19 1011.0 - 0.0 - - - - - - -
20/07:30am 14.3 NW 14 20 1010.6 - 0.0 - - - - - - -
20/07:00am 14.0 NW 15 20 1010.2 - 0.0 - - - - - - -
20/06:30am 13.8 NW 16 22 1009.9 - 0.0 - - - - - - -
20/06:00am 13.6 NNW 15 21 1009.8 - 0.0 - - - - - - -
20/05:30am 13.6 NNW 16 22 1009.6 - 0.0 - - - - - - -
20/05:00am 13.5 NNW 16 22 1009.6 - 0.0 - - - - - - -
20/04:30am 13.5 NNW 15 23 1009.5 - 0.0 - - - - - - -
20/04:00am 13.3 NNW 14 22 1009.7 - 0.0 - - - - - - -
20/03:30am 13.2 NNW 13 19 1010.2 - 0.0 - - - - - - -
20/03:00am 13.3 NNW 12 17 1010.7 - 0.0 - - - - - - -
20/02:30am 13.2 NNW 12 16 1011.1 - 0.0 - - - - - - -
20/02:00am 13.2 NW 12 17 1011.4 - 0.0 - - - - - - -
20/01:30am 13.2 NW 12 16 1011.8 - 0.0 - - - - - - -
20/01:00am 13.3 NW 10 16 1012.3 - 0.0 - - - - - - -
20/12:30am 13.4 NW 11 17 1012.7 - 0.0 - - - - - - -
20/12:00am 13.4 NW 12 19 1013.0 - 0.0 - - - - - - -
 
Date/Time
EDT
Temp

°C
Wind Pressure Rain
since 9am
mm
Weather Cloud Vis
km
Sea
Height
m
Swell
Dir
 
Speed
knots
Gust
knots
hPa Trend Height
m
Period
s
Dir
19/11:30pm 13.6 NW 10 16 1013.5 - 0.0 - - - - - - -
19/11:00pm 13.9 NW 13 19 1013.5 - 0.0 - - - - - - -
19/10:30pm 14.1 NW 12 19 1013.7 - 0.0 - - - - - - -
19/10:00pm 14.5 NW 12 17 1014.0 - 0.0 - - - - - - -
19/09:30pm 14.8 NW 10 16 1013.9 - 0.0 - - - - - - -
19/09:00pm 15.1 NW 8 12 1013.8 - 0.0 - - - - - - -
19/08:30pm 15.2 NW 9 13 1013.5 - 0.0 - - - - - - -
19/08:00pm 15.5 WNW 10 15 1013.3 - 0.0 - - - - - - -
19/07:30pm 15.7 WNW 9 13 1013.4 - 0.0 - - - - - - -
19/07:00pm 15.8 WNW 13 18 1013.0 - 0.0 - - - - - - -
19/06:30pm 16.1 WNW 12 19 1012.8 - 0.0 - - - - - - -
19/06:00pm 16.7 WNW 9 14 1012.6 - 0.0 - - - - - - -
19/05:30pm 16.7 NW 9 14 1012.5 - 0.0 - - - - - - -
19/05:00pm 15.6 ESE 7 13 1012.4 - 0.0 - - - - - - -
19/04:30pm 16.4 ESE 7 10 1012.3 - 0.0 - - - - - - -
19/04:00pm 16.6 E 6 9 1012.3 - 0.0 - - - - - - -
19/03:30pm 17.1 N 8 15 1011.9 - 0.0 - - - - - - -
19/03:00pm 16.9 ESE 5 8 1011.7 - 0.0 - - - - - - -
19/02:30pm 16.7 ESE 5 7 1011.7 - 0.0 - - - - - - -
19/02:00pm 15.7 E 7 9 1011.7 - 0.0 - - - - - - -
19/01:30pm 15.7 SSW 8 13 1011.9 - 0.0 - - - - - - -
19/01:00pm 15.4 E 8 11 1011.9 - 0.0 - - - - - - -
19/12:30pm 16.1 ENE 8 11 1011.7 - 0.0 - - - - - - -
19/12:00pm 15.0 SW 7 13 1011.9 - 0.0 - - - - - - -
19/11:30am 15.4 N 4 8 1012.0 - 0.0 - - - - - - -
19/11:00am 15.4 N 4 7 1012.1 - 0.0 - - - - - - -
19/10:30am 14.1 N 7 11 1012.2 - 0.0 - - - - - - -
19/10:00am 13.6 NNW 8 15 1012.3 - 0.0 - - - - - - -
19/09:30am 14.3 W 5 8 1012.3 - 0.0 - - - - - - -
19/09:00am 14.3 SW 7 11 1012.3 - 0.4 - - - - - - -
19/08:30am 14.1 SSW 7 12 1012.0 - 0.4 - - - - - - -
19/08:00am 13.4 NW 4 7 1011.7 - 0.4 - - - - - - -
19/07:30am 13.0 N 5 8 1011.2 - 0.4 - - - - - - -
19/07:00am 11.2 N 5 7 1011.0 - 0.4 - - - - - - -
19/06:30am 10.3 W 3 6 1010.7 - 0.4 - - - - - - -
19/06:00am 9.4 SSW 4 5 1010.2 - 0.4 - - - - - - -
19/05:30am 9.0 S 1 6 1009.8 - 0.4 - - - - - - -
19/05:00am 9.5 S 4 6 1009.2 - 0.4 - - - - - - -
19/04:30am 10.4 ESE 3 5 1008.8 - 0.4 - - - - - - -
19/04:00am 10.4 SW 7 11 1008.4 - 0.4 - - - - - - -
19/03:30am 10.0 SSE 2 6 1008.1 - 0.4 - - - - - - -
19/03:00am 10.4 NNE 3 6 1008.0 - 0.4 - - - - - - -
19/02:30am 10.9 NNW 6 10 1008.0 - 0.4 - - - - - - -
19/02:00am 11.1 NNW 6 10 1007.6 - 0.4 - - - - - - -
19/01:30am 11.4 N 6 9 1007.5 - 0.4 - - - - - - -
19/01:00am 11.9 NNW 9 14 1007.4 - 0.4 - - - - - - -
19/12:30am 12.2 NNE 8 14 1006.9 - 0.4 - - - - - - -
19/12:00am 12.4 NNW 10 16 1006.6 - 0.4 - - - - - - -
 
Date/Time
EDT
Temp

°C
Wind Pressure Rain
since 9am
mm
Weather Cloud Vis
km
Sea
Height
m
Swell
Dir
 
Speed
knots
Gust
knots
hPa Trend Height
m
Period
s
Dir
18/11:30pm 12.4 WSW 7 11 1006.5 - 0.4 - - - - - - -
18/11:00pm 12.8 SW 5 9 1006.6 - 0.4 - - - - - - -
18/10:30pm 13.5 SW 7 11 1006.3 - 0.4 - - - - - - -
18/10:00pm 13.5 ESE 4 7 1005.8 - 0.4 - - - - - - -
18/09:30pm 13.9 SW 12 19 1005.2 - 0.4 - - - - - - -
18/09:00pm 14.4 SW 5 7 1004.3 - 0.4 - - - - - - -
18/08:30pm 15.1 WSW 6 12 1003.7 - 0.4 - - - - - - -
18/08:00pm 15.6 NW 9 14 1002.9 - 0.4 - - - - - - -
18/07:30pm 16.1 NW 13 21 1002.4 - 0.4 - - - - - - -
18/07:00pm 17.1 NW 11 20 1002.0 - 0.4 - - - - - - -
18/06:30pm 16.9 NW 13 22 1001.3 - 0.4 - - - - - - -
18/06:00pm 16.9 NW 10 16 1001.2 - 0.4 - - - - - - -
18/05:30pm 16.6 NW 10 17 1000.9 - 0.4 - - - - - - -
18/05:00pm 15.9 NW 14 20 1000.7 - 0.4 - - - - - - -
18/04:30pm 16.2 NNW 12 19 1000.5 - 0.4 - - - - - - -
18/04:00pm 16.5 WNW 9 18 1000.5 - 0.4 - - - - - - -
18/03:30pm 16.6 NW 17 27 1000.2 - 0.2 - - - - - - -
18/03:00pm 20.2 NNW 15 25 999.2 - 0.0 - - - - - - -
18/02:30pm 19.7 NNW 18 30 999.2 - 0.0 - - - - - - -
18/02:26pm 19.7 NNW 15 30 999.3 - 0.0 - - - - - - -
18/02:00pm 19.8 N 15 23 999.3 - 0.0 - - - - - - -
18/01:52pm 19.8 N 15 25 999.3 - 0.0 - - - - - - -
18/01:30pm 20.2 N 17 25 999.6 - 0.0 - - - - - - -
18/01:01pm 19.5 N 18 28 999.8 - 0.0 - - - - - - -
18/01:00pm 19.5 N 18 26 999.7 - 0.0 - - - - - - -
18/12:54pm 19.9 N 15 26 999.7 - 0.0 - - - - - - -
18/12:30pm 21.0 NNE 6 10 1000.1 - 0.0 - - - - - - -
18/12:00pm 18.7 N 7 11 1000.9 - 0.0 - - - - - - -
18/11:30am 18.0 N 8 13 1001.4 - 0.0 - - - - - - -
18/11:00am 18.5 N 8 15 1001.6 - 0.0 - - - - - - -

Other Formats:

Comma delimited format used in spreadsheet applications
http://www.bom.gov.au/fwo/IDT60701/IDT60701.94970.axf

JavaScript Object Notation format (JSON) in row-major order
http://www.bom.gov.au/fwo/IDT60701/IDT60701.94970.json